Aviation Digital Data Service (ADDS)

Output produced by METARs form (1101 UTC 30 April 2017)
found at http://www.aviationweather.gov/adds/metars/
 
LYPG 301030Z 18003KT 120V270 9999 SCT100 19/09 Q1011 NOSIG
TAF LYPG 300500Z 3006/0106 36005KT 9999 FEW040 SCT090 TX23/3013Z TN13/0104Z 
     TEMPO 3006/3009 02015KT
       
LYTV 301030Z 26006KT 220V010 CAVOK 21/08 Q1010 NOSIG
TAF LYTV 300500Z 3006/0106 22005KT CAVOK TX23/3013Z TN13/0104Z